createdAt,value
2022-10-29T00:00:58.486Z,15.60
2022-10-29T00:03:26.720Z,15.70
2022-10-29T00:06:03.022Z,15.70
2022-10-29T00:08:32.150Z,15.70
2022-10-29T00:11:11.780Z,15.70
2022-10-29T00:13:39.060Z,15.70
2022-10-29T00:16:15.226Z,15.60
2022-10-29T00:18:42.753Z,15.60
2022-10-29T00:21:13.698Z,15.50
2022-10-29T00:23:41.116Z,15.50
2022-10-29T00:26:08.933Z,15.40
2022-10-29T00:28:36.602Z,15.30
2022-10-29T00:31:05.332Z,15.20
2022-10-29T00:33:33.095Z,15.30
2022-10-29T00:36:11.576Z,15.40
2022-10-29T00:38:39.149Z,15.40
2022-10-29T00:41:08.609Z,15.50
2022-10-29T00:43:37.627Z,15.50
2022-10-29T00:46:27.594Z,15.50
2022-10-29T00:48:56.527Z,15.60
2022-10-29T00:51:24.770Z,15.50
2022-10-29T00:53:59.990Z,15.40
2022-10-29T00:56:29.506Z,15.30
2022-10-29T00:58:57.348Z,15.30
2022-10-29T01:01:24.807Z,15.30
2022-10-29T01:03:52.899Z,15.30
2022-10-29T01:06:20.574Z,15.30
2022-10-29T01:08:47.750Z,15.30
2022-10-29T01:11:38.008Z,15.30
2022-10-29T01:14:13.940Z,15.30
2022-10-29T01:16:57.366Z,15.30
2022-10-29T01:19:58.722Z,15.30
2022-10-29T01:22:39.921Z,15.30
2022-10-29T01:25:28.231Z,15.40
2022-10-29T01:28:15.697Z,15.40
2022-10-29T01:31:05.376Z,15.40
2022-10-29T01:33:51.908Z,15.40
2022-10-29T01:36:25.215Z,15.40
2022-10-29T01:39:02.896Z,15.50
2022-10-29T01:41:33.137Z,15.40
2022-10-29T01:44:57.158Z,15.30
2022-10-29T01:47:31.492Z,15.20
2022-10-29T01:50:05.055Z,15.20
2022-10-29T01:52:34.806Z,15.20
2022-10-29T01:55:02.287Z,15.20
2022-10-29T01:57:35.856Z,15.20
2022-10-29T02:00:12.943Z,15.20
2022-10-29T02:03:10.125Z,15.30
2022-10-29T02:06:14.553Z,15.10
2022-10-29T02:09:04.881Z,15.10
2022-10-29T02:11:46.243Z,15.10
2022-10-29T02:14:39.433Z,15.10
2022-10-29T02:17:07.431Z,15.20
2022-10-29T02:19:37.283Z,15.20
2022-10-29T02:22:04.596Z,15.20
2022-10-29T02:24:31.846Z,15.10
2022-10-29T02:26:59.209Z,15.10
2022-10-29T02:29:26.407Z,15.10
2022-10-29T02:31:53.637Z,15.10
2022-10-29T02:34:20.950Z,15.10
2022-10-29T02:36:48.178Z,15.20
2022-10-29T02:39:15.445Z,15.10
2022-10-29T02:41:42.699Z,15.10
2022-10-29T02:44:09.951Z,15.00
2022-10-29T02:46:39.555Z,14.90
2022-10-29T02:49:07.561Z,14.90
2022-10-29T02:51:34.813Z,14.90
2022-10-29T02:54:02.027Z,14.90
2022-10-29T02:56:29.216Z,14.90
2022-10-29T02:58:56.536Z,15.00
2022-10-29T03:01:24.512Z,15.00
2022-10-29T03:03:51.877Z,15.00
2022-10-29T03:06:20.587Z,14.90
2022-10-29T03:08:48.108Z,14.90
2022-10-29T03:11:15.399Z,14.80
2022-10-29T03:13:42.953Z,14.90
2022-10-29T03:16:13.027Z,14.90
2022-10-29T03:18:40.428Z,14.90
2022-10-29T03:21:07.722Z,14.90
2022-10-29T03:23:34.962Z,14.90
2022-10-29T03:26:02.482Z,14.80
2022-10-29T03:28:30.629Z,14.80
2022-10-29T03:30:58.519Z,14.80
2022-10-29T03:33:26.666Z,14.80
2022-10-29T03:36:05.592Z,14.80
2022-10-29T03:38:33.453Z,14.70
2022-10-29T03:41:01.157Z,14.70
2022-10-29T03:43:28.331Z,14.50
2022-10-29T03:45:56.989Z,14.50
2022-10-29T03:48:25.244Z,14.50
2022-10-29T03:51:05.849Z,14.40
2022-10-29T03:53:35.033Z,14.40
2022-10-29T03:56:03.568Z,14.30
2022-10-29T03:58:30.786Z,14.30
2022-10-29T04:01:06.715Z,14.20
2022-10-29T04:03:35.212Z,14.20
2022-10-29T04:06:08.765Z,14.10
2022-10-29T04:08:35.977Z,13.90
2022-10-29T04:11:03.223Z,13.90
2022-10-29T04:13:30.520Z,14.00
2022-10-29T04:15:57.914Z,14.10
2022-10-29T04:18:25.310Z,14.10
2022-10-29T04:29:15.627Z,14.30
2022-10-29T04:31:42.901Z,14.30
2022-10-29T04:34:10.196Z,14.40
2022-10-29T04:36:37.432Z,14.30
2022-10-29T04:39:04.800Z,14.40
2022-10-29T04:41:32.049Z,14.40
2022-10-29T04:43:59.405Z,14.40
2022-10-29T04:46:26.678Z,14.30
2022-10-29T04:48:53.925Z,14.40
2022-10-29T04:51:23.094Z,14.40
2022-10-29T04:53:50.611Z,14.40
2022-10-29T04:56:18.252Z,14.40
2022-10-29T04:58:45.487Z,14.40
2022-10-29T05:01:12.846Z,14.40
2022-10-29T05:03:40.300Z,14.40
2022-10-29T05:06:07.754Z,14.40
2022-10-29T05:08:35.004Z,14.40
2022-10-29T05:11:06.300Z,14.30
2022-10-29T05:13:34.106Z,14.30
2022-10-29T05:16:01.688Z,14.30
2022-10-29T05:18:28.952Z,14.30
2022-10-29T05:20:56.855Z,14.30
2022-10-29T05:23:24.419Z,14.30
2022-10-29T05:25:52.428Z,14.30
2022-10-29T05:28:22.529Z,14.20
2022-10-29T05:30:51.948Z,14.20
2022-10-29T05:33:24.505Z,14.20
2022-10-29T05:35:52.136Z,14.20
2022-10-29T05:38:19.991Z,14.20
2022-10-29T05:40:47.282Z,14.10
2022-10-29T05:43:16.461Z,14.10
2022-10-29T05:45:44.353Z,14.10
2022-10-29T05:50:45.072Z,14.10
2022-10-29T05:53:14.927Z,14.10
2022-10-29T05:55:42.544Z,14.10
2022-10-29T05:58:13.024Z,14.00
2022-10-29T06:00:43.200Z,14.10
2022-10-29T06:03:16.200Z,14.20
2022-10-29T06:05:44.069Z,14.30
2022-10-29T06:08:11.349Z,14.30
2022-10-29T06:10:38.597Z,14.40
2022-10-29T06:13:13.654Z,14.50
2022-10-29T06:15:41.073Z,14.60
2022-10-29T06:18:08.487Z,14.70
2022-10-29T06:20:37.087Z,14.90
2022-10-29T06:23:05.074Z,15.00
2022-10-29T06:25:32.668Z,15.10
2022-10-29T06:28:08.794Z,15.20
2022-10-29T06:30:36.618Z,15.30
2022-10-29T06:33:05.310Z,15.50
2022-10-29T06:35:32.669Z,15.70
2022-10-29T06:38:00.532Z,15.90
2022-10-29T06:40:28.165Z,16.00
2022-10-29T06:43:03.912Z,16.20
2022-10-29T06:45:33.287Z,16.40
2022-10-29T06:48:01.003Z,16.70
2022-10-29T06:50:28.880Z,16.80
2022-10-29T06:53:04.454Z,17.00
2022-10-29T06:55:34.957Z,17.20
2022-10-29T06:58:07.849Z,17.50
2022-10-29T07:00:35.595Z,17.70
2022-10-29T07:03:04.918Z,17.80
2022-10-29T07:05:33.316Z,17.90
2022-10-29T07:08:01.579Z,18.00
2022-10-29T07:10:31.033Z,18.10
2022-10-29T07:12:58.549Z,18.00
2022-10-29T07:15:31.296Z,18.20
2022-10-29T07:17:59.636Z,18.20
2022-10-29T07:20:34.168Z,18.50
2022-10-29T07:23:01.682Z,18.60
2022-10-29T07:25:30.245Z,18.50
2022-10-29T07:28:12.871Z,18.80
2022-10-29T07:30:41.032Z,19.00
2022-10-29T07:33:10.026Z,19.20
2022-10-29T07:35:37.701Z,19.60
2022-10-29T07:38:10.904Z,19.80
2022-10-29T07:40:40.414Z,20.10
2022-10-29T07:43:08.613Z,20.30
2022-10-29T07:45:35.830Z,20.70
2022-10-29T07:48:07.146Z,21.00
2022-10-29T07:50:34.490Z,21.20
2022-10-29T07:53:02.900Z,21.30
2022-10-29T07:55:31.298Z,21.30
2022-10-29T07:58:05.002Z,21.40
2022-10-29T08:00:35.025Z,21.60
2022-10-29T08:03:02.585Z,21.70
2022-10-29T08:05:31.009Z,21.90
2022-10-29T08:07:59.428Z,22.00
2022-10-29T08:10:27.544Z,22.00
2022-10-29T08:12:58.530Z,22.20
2022-10-29T08:15:27.743Z,22.30
2022-10-29T08:17:55.708Z,22.50
2022-10-29T08:20:25.682Z,22.40
2022-10-29T08:22:53.125Z,22.60
2022-10-29T08:25:20.904Z,22.70
2022-10-29T08:28:04.581Z,22.80
2022-10-29T08:30:32.248Z,23.00
2022-10-29T08:33:00.176Z,23.00
2022-10-29T08:35:28.903Z,23.20
2022-10-29T08:37:57.013Z,23.30
2022-10-29T08:40:38.897Z,23.20
2022-10-29T08:43:30.893Z,23.20
2022-10-29T08:45:59.197Z,23.30
2022-10-29T08:49:01.473Z,23.50
2022-10-29T08:51:39.032Z,23.50
2022-10-29T08:54:30.134Z,23.20
2022-10-29T08:57:02.034Z,23.10
2022-10-29T08:59:35.938Z,22.90
2022-10-29T09:02:03.826Z,23.00
2022-10-29T09:04:36.196Z,23.20
2022-10-29T09:07:24.152Z,23.50
2022-10-29T09:10:00.077Z,23.60
2022-10-29T09:12:50.822Z,23.90
2022-10-29T09:15:33.062Z,24.10
2022-10-29T09:18:34.062Z,24.30
2022-10-29T09:21:14.989Z,24.20
2022-10-29T09:24:10.222Z,24.30
2022-10-29T09:26:53.070Z,24.30
2022-10-29T09:29:47.673Z,23.80
2022-10-29T09:32:29.302Z,24.00
2022-10-29T09:35:18.636Z,23.60
2022-10-29T09:37:51.607Z,23.80
2022-10-29T09:40:34.129Z,24.20
2022-10-29T09:43:08.190Z,24.30
2022-10-29T09:45:45.416Z,24.40
2022-10-29T09:48:56.222Z,24.30
2022-10-29T09:51:32.890Z,24.50
2022-10-29T09:54:00.533Z,24.60
2022-10-29T09:56:27.916Z,24.40
2022-10-29T09:59:07.341Z,24.40
2022-10-29T10:01:37.693Z,24.40
2022-10-29T10:04:19.257Z,24.60
2022-10-29T10:07:22.009Z,24.60
2022-10-29T10:09:59.900Z,24.30
2022-10-29T10:12:43.321Z,24.30
2022-10-29T10:15:16.770Z,24.50
2022-10-29T10:18:16.528Z,24.60
2022-10-29T10:20:47.386Z,24.60
2022-10-29T10:23:27.196Z,24.40
2022-10-29T10:26:02.367Z,24.40
2022-10-29T10:28:35.959Z,24.50
2022-10-29T10:31:09.257Z,24.50
2022-10-29T10:33:43.927Z,24.60
2022-10-29T10:36:11.258Z,24.60
2022-10-29T10:38:42.073Z,24.30
2022-10-29T10:41:12.292Z,24.20
2022-10-29T10:43:45.065Z,24.20
2022-10-29T10:46:35.395Z,24.10
2022-10-29T10:49:15.915Z,24.00
2022-10-29T10:51:51.943Z,24.00
2022-10-29T10:54:37.170Z,23.90
2022-10-29T10:57:10.768Z,24.00
2022-10-29T10:59:59.889Z,24.00
2022-10-29T11:02:27.530Z,24.10
2022-10-29T11:05:26.405Z,24.10
2022-10-29T11:08:10.965Z,24.00
2022-10-29T11:10:47.881Z,24.10
2022-10-29T11:13:20.033Z,24.10
2022-10-29T11:15:56.830Z,23.90
2022-10-29T11:18:41.233Z,23.80
2022-10-29T11:21:17.250Z,23.80
2022-10-29T11:24:08.464Z,23.80
2022-10-29T11:27:04.523Z,23.70
2022-10-29T11:29:52.131Z,23.70
2022-10-29T11:32:41.420Z,23.90
2022-10-29T11:35:22.257Z,23.80
2022-10-29T11:38:08.597Z,23.90
2022-10-29T11:40:42.036Z,23.90
2022-10-29T11:43:17.919Z,23.90
2022-10-29T11:45:54.637Z,23.90
2022-10-29T11:48:32.169Z,24.00
2022-10-29T11:51:26.515Z,24.00
2022-10-29T11:53:56.816Z,24.00
2022-10-29T11:56:48.149Z,24.00
2022-10-29T11:59:33.590Z,24.00
2022-10-29T12:02:18.463Z,24.00
2022-10-29T12:04:56.264Z,24.10
2022-10-29T12:07:54.042Z,24.00
2022-10-29T12:10:50.658Z,23.90
2022-10-29T12:13:24.002Z,24.00
2022-10-29T12:16:07.334Z,24.00
2022-10-29T12:18:41.706Z,24.10
2022-10-29T12:21:28.620Z,24.10
2022-10-29T12:24:26.203Z,24.10
2022-10-29T12:27:00.978Z,24.20
2022-10-29T12:29:34.056Z,24.30
2022-10-29T12:32:24.566Z,24.20
2022-10-29T12:35:12.726Z,24.10
2022-10-29T12:38:05.851Z,24.00
2022-10-29T12:40:40.135Z,24.00
2022-10-29T12:43:21.807Z,24.10
2022-10-29T12:46:19.516Z,24.10
2022-10-29T12:48:56.507Z,24.20
2022-10-29T12:51:36.289Z,24.30
2022-10-29T12:54:20.043Z,24.30
2022-10-29T12:56:50.318Z,24.30
2022-10-29T12:59:37.161Z,24.30
2022-10-29T13:02:28.214Z,24.30
2022-10-29T13:05:09.532Z,24.40
2022-10-29T13:07:58.176Z,24.50
2022-10-29T13:10:27.095Z,24.50
2022-10-29T13:13:20.144Z,24.60
2022-10-29T13:15:56.422Z,24.60
2022-10-29T13:19:02.513Z,24.50
2022-10-29T13:22:04.610Z,24.60
2022-10-29T13:24:32.554Z,24.50
2022-10-29T13:27:03.030Z,24.50
2022-10-29T13:29:47.644Z,24.50
2022-10-29T13:32:38.688Z,24.40
2022-10-29T13:35:26.739Z,24.40
2022-10-29T13:38:12.475Z,24.40
2022-10-29T13:41:11.963Z,24.40
2022-10-29T13:43:42.105Z,24.50
2022-10-29T13:46:29.392Z,24.40
2022-10-29T13:49:00.554Z,24.30
2022-10-29T13:51:33.419Z,24.40
2022-10-29T13:54:24.375Z,24.20
2022-10-29T13:57:02.719Z,24.20
2022-10-29T13:59:45.465Z,24.20
2022-10-29T14:02:37.147Z,24.20
2022-10-29T14:05:23.379Z,24.30
2022-10-29T14:08:09.376Z,24.30
2022-10-29T14:10:47.784Z,24.30
2022-10-29T14:13:35.892Z,24.30
2022-10-29T14:16:10.215Z,24.30
2022-10-29T14:18:46.163Z,24.30
2022-10-29T14:21:18.046Z,24.30
2022-10-29T14:24:01.868Z,24.20
2022-10-29T14:26:31.250Z,24.10
2022-10-29T14:29:14.306Z,24.20
2022-10-29T14:31:41.702Z,24.20
2022-10-29T14:34:23.244Z,24.30
2022-10-29T14:36:54.034Z,24.20
2022-10-29T14:39:37.005Z,24.20
2022-10-29T14:42:34.144Z,24.10
2022-10-29T14:45:20.420Z,24.00
2022-10-29T14:47:59.989Z,24.10
2022-10-29T14:50:29.324Z,24.10
2022-10-29T14:53:01.170Z,24.00
2022-10-29T14:55:33.354Z,24.00
2022-10-29T14:58:29.751Z,23.90
2022-10-29T15:00:58.488Z,23.90
2022-10-29T15:03:29.288Z,23.90
2022-10-29T15:06:15.643Z,23.90
2022-10-29T15:08:45.661Z,23.80
2022-10-29T15:11:34.843Z,23.80
2022-10-29T15:14:04.065Z,23.70
2022-10-29T15:16:35.703Z,23.70
2022-10-29T15:19:05.695Z,23.60
2022-10-29T15:21:33.472Z,23.60
2022-10-29T15:24:06.303Z,23.60
2022-10-29T15:26:36.052Z,23.50
2022-10-29T15:29:10.595Z,23.40
2022-10-29T15:31:45.466Z,23.30
2022-10-29T15:34:19.979Z,23.30
2022-10-29T15:36:48.549Z,23.20
2022-10-29T15:39:26.548Z,23.20
2022-10-29T15:41:58.026Z,23.10
2022-10-29T15:44:32.420Z,23.10
2022-10-29T15:47:01.694Z,22.90
2022-10-29T15:49:32.382Z,22.90
2022-10-29T15:52:00.820Z,22.80
2022-10-29T15:54:28.623Z,22.70
2022-10-29T15:56:56.012Z,22.60
2022-10-29T15:59:26.216Z,22.60
2022-10-29T16:01:53.622Z,22.50
2022-10-29T16:04:20.960Z,22.40
2022-10-29T16:06:48.347Z,22.30
2022-10-29T16:09:19.678Z,22.30
2022-10-29T16:11:46.947Z,22.20
2022-10-29T16:14:14.163Z,22.10
2022-10-29T16:16:41.421Z,22.10
2022-10-29T16:19:08.743Z,22.00
2022-10-29T16:21:36.188Z,21.90
2022-10-29T16:24:03.606Z,21.80
2022-10-29T16:26:30.918Z,21.70
2022-10-29T16:28:58.189Z,21.60
2022-10-29T16:31:27.540Z,21.50
2022-10-29T16:33:57.944Z,21.40
2022-10-29T16:36:25.530Z,21.20
2022-10-29T16:38:52.819Z,21.10
2022-10-29T16:41:20.363Z,21.00
2022-10-29T16:43:47.986Z,20.80
2022-10-29T16:46:15.590Z,20.80
2022-10-29T16:48:43.367Z,20.80
2022-10-29T16:51:10.711Z,20.70
2022-10-29T16:53:38.245Z,20.60
2022-10-29T16:56:05.970Z,20.50
2022-10-29T16:58:33.282Z,20.40
2022-10-29T17:01:08.790Z,20.40
2022-10-29T17:03:38.955Z,20.40
2022-10-29T17:06:08.982Z,20.40
2022-10-29T17:08:37.612Z,20.50
2022-10-29T17:11:08.696Z,20.50
2022-10-29T17:13:36.994Z,20.50
2022-10-29T17:16:14.713Z,20.50
2022-10-29T17:18:42.174Z,20.50
2022-10-29T17:21:09.453Z,20.60
2022-10-29T17:23:36.811Z,20.60
2022-10-29T17:26:04.109Z,20.60
2022-10-29T17:28:31.575Z,20.50
2022-10-29T17:30:58.814Z,20.50
2022-10-29T17:33:26.025Z,20.40
2022-10-29T17:36:08.476Z,20.50
2022-10-29T17:38:35.757Z,20.50
2022-10-29T17:41:03.164Z,20.40
2022-10-29T17:43:30.452Z,20.40
2022-10-29T17:45:57.926Z,20.40
2022-10-29T17:48:25.375Z,20.30
2022-10-29T17:50:57.780Z,20.30
2022-10-29T17:53:25.956Z,20.30
2022-10-29T17:55:53.430Z,20.30
2022-10-29T17:58:20.703Z,20.20
2022-10-29T18:00:50.762Z,20.10
2022-10-29T18:03:18.414Z,20.00
2022-10-29T18:05:45.730Z,19.90
2022-10-29T18:08:13.335Z,19.90
2022-10-29T18:10:41.182Z,19.90
2022-10-29T18:13:08.487Z,19.80
2022-10-29T18:15:36.079Z,19.80
2022-10-29T18:18:03.496Z,19.80
2022-10-29T18:20:30.805Z,19.80
2022-10-29T18:22:58.461Z,19.80
2022-10-29T18:25:26.292Z,19.80
2022-10-29T18:27:55.606Z,19.80
2022-10-29T18:30:23.741Z,19.80
2022-10-29T18:32:57.709Z,19.70
2022-10-29T18:35:27.231Z,19.70
2022-10-29T18:37:54.868Z,19.70
2022-10-29T18:40:22.577Z,19.70
2022-10-29T18:42:49.961Z,19.80
2022-10-29T18:45:17.699Z,19.80
2022-10-29T18:47:45.069Z,19.80
2022-10-29T18:50:12.260Z,19.60
2022-10-29T18:52:39.568Z,19.50
2022-10-29T18:55:07.687Z,19.50
2022-10-29T18:57:35.671Z,19.40
2022-10-29T19:00:04.358Z,19.50
2022-10-29T19:02:31.749Z,19.50
2022-10-29T19:04:59.310Z,19.40
2022-10-29T19:07:26.821Z,19.30
2022-10-29T19:09:54.326Z,19.20
2022-10-29T19:12:21.733Z,19.20
2022-10-29T19:14:51.367Z,19.20
2022-10-29T19:17:18.901Z,19.10
2022-10-29T19:19:46.519Z,19.00
2022-10-29T19:22:14.092Z,19.00
2022-10-29T19:24:41.452Z,19.00
2022-10-29T19:27:11.093Z,19.10
2022-10-29T19:29:38.777Z,19.10
2022-10-29T19:32:06.171Z,19.20
2022-10-29T19:34:33.613Z,19.20
2022-10-29T19:37:00.956Z,19.30
2022-10-29T19:39:28.185Z,19.40
2022-10-29T19:41:55.400Z,19.50
2022-10-29T19:44:22.600Z,19.50
2022-10-29T19:46:50.994Z,19.50
2022-10-29T19:49:18.210Z,19.60
2022-10-29T19:51:46.296Z,19.60
2022-10-29T19:54:13.615Z,19.60
2022-10-29T19:56:40.969Z,19.60
2022-10-29T19:59:08.310Z,19.60
2022-10-29T20:01:38.207Z,19.60
2022-10-29T20:04:05.642Z,19.70
2022-10-29T20:06:32.958Z,19.60
2022-10-29T20:09:00.396Z,19.50
2022-10-29T20:11:27.661Z,19.30
2022-10-29T20:13:54.946Z,19.00
2022-10-29T20:16:22.891Z,18.70
2022-10-29T20:18:50.617Z,18.50
2022-10-29T20:21:17.864Z,18.30
2022-10-29T20:23:45.425Z,18.20
2022-10-29T20:26:12.837Z,18.20
2022-10-29T20:28:41.014Z,18.10
2022-10-29T20:31:17.090Z,18.10
2022-10-29T20:33:52.021Z,18.00
2022-10-29T20:36:19.766Z,18.00
2022-10-29T20:38:51.154Z,18.00
2022-10-29T20:41:19.229Z,17.90
2022-10-29T20:43:50.972Z,17.90
2022-10-29T20:46:18.188Z,17.90
2022-10-29T20:48:45.380Z,17.80
2022-10-29T20:51:13.494Z,17.80
2022-10-29T20:53:41.346Z,17.80
2022-10-29T20:56:11.570Z,17.80
2022-10-29T20:58:42.405Z,17.80
2022-10-29T21:01:15.346Z,17.70
2022-10-29T21:03:43.534Z,17.70
2022-10-29T21:06:17.042Z,17.80
2022-10-29T21:08:46.058Z,17.80
2022-10-29T21:11:14.509Z,17.70
2022-10-29T21:13:41.937Z,17.70
2022-10-29T21:16:13.677Z,17.60
2022-10-29T21:18:42.705Z,17.50
2022-10-29T21:21:10.003Z,17.50
2022-10-29T21:23:37.645Z,17.40
2022-10-29T21:26:06.600Z,17.30
2022-10-29T21:28:33.993Z,17.30
2022-10-29T21:31:01.234Z,17.20
2022-10-29T21:33:28.455Z,17.20
2022-10-29T21:35:56.928Z,17.00
2022-10-29T21:38:27.156Z,17.00
2022-10-29T21:40:54.411Z,17.00
2022-10-29T21:43:22.064Z,17.00
2022-10-29T21:45:50.672Z,16.90
2022-10-29T21:48:18.184Z,16.90
2022-10-29T21:50:45.738Z,17.00
2022-10-29T21:53:13.532Z,17.10
2022-10-29T21:55:40.939Z,17.10
2022-10-29T21:58:08.250Z,17.10
2022-10-29T22:00:35.562Z,17.10
2022-10-29T22:03:04.545Z,17.00
2022-10-29T22:05:32.090Z,17.00
2022-10-29T22:08:00.023Z,17.00
2022-10-29T22:10:29.099Z,17.10
2022-10-29T22:12:56.867Z,17.10
2022-10-29T22:15:24.280Z,17.10
2022-10-29T22:17:51.538Z,17.10
2022-10-29T22:20:18.852Z,17.00
2022-10-29T22:22:46.088Z,17.00
2022-10-29T22:25:13.448Z,16.90
2022-10-29T22:27:40.664Z,16.90
2022-10-29T22:30:08.449Z,16.90
2022-10-29T22:32:36.832Z,16.80
2022-10-29T22:35:04.799Z,16.80
2022-10-29T22:37:32.030Z,16.70
2022-10-29T22:39:59.221Z,16.60
2022-10-29T22:42:26.470Z,16.60
2022-10-29T22:44:53.737Z,16.70
2022-10-29T22:47:20.990Z,16.60
2022-10-29T22:49:48.251Z,16.60
2022-10-29T22:52:15.468Z,16.60
2022-10-29T22:54:42.826Z,16.50
2022-10-29T22:57:10.501Z,16.40
2022-10-29T22:59:37.825Z,16.40
2022-10-29T23:02:05.160Z,16.40
2022-10-29T23:04:32.416Z,16.30
2022-10-29T23:07:02.190Z,16.20
2022-10-29T23:09:29.685Z,16.20
2022-10-29T23:11:56.951Z,16.20
2022-10-29T23:14:24.235Z,16.20
2022-10-29T23:16:51.622Z,16.20
2022-10-29T23:19:18.928Z,16.10
2022-10-29T23:21:46.190Z,16.10
2022-10-29T23:24:13.407Z,16.10
2022-10-29T23:26:40.645Z,16.00
2022-10-29T23:29:07.910Z,15.90
2022-10-29T23:31:35.137Z,15.90
2022-10-29T23:34:02.353Z,16.00
2022-10-29T23:36:29.660Z,16.00
2022-10-29T23:38:58.572Z,16.10
2022-10-29T23:41:27.072Z,16.00
2022-10-29T23:43:54.421Z,16.00
2022-10-29T23:46:22.149Z,15.90
2022-10-29T23:48:49.987Z,15.90
2022-10-29T23:51:17.439Z,15.90
2022-10-29T23:53:44.679Z,15.90
2022-10-29T23:56:11.911Z,15.90
2022-10-29T23:58:39.231Z,16.00
